sensor_id;sensor_type;location;lat;lon;timestamp;P1;durP1;ratioP1;P2;durP2;ratioP2
65373;SDS011;52070;53.760;9.678;2023-11-19T00:00:30;8.43;;;4.80;;
65373;SDS011;52070;53.760;9.678;2023-11-19T00:02:57;9.00;;;5.18;;
65373;SDS011;52070;53.760;9.678;2023-11-19T00:05:24;9.02;;;4.75;;
65373;SDS011;52070;53.760;9.678;2023-11-19T00:07:51;8.63;;;4.43;;
65373;SDS011;52070;53.760;9.678;2023-11-19T00:10:20;8.68;;;4.07;;
65373;SDS011;52070;53.760;9.678;2023-11-19T00:12:47;8.85;;;4.30;;
65373;SDS011;52070;53.760;9.678;2023-11-19T00:15:15;7.68;;;4.25;;
65373;SDS011;52070;53.760;9.678;2023-11-19T00:17:44;6.90;;;4.10;;
65373;SDS011;52070;53.760;9.678;2023-11-19T00:20:13;6.80;;;4.05;;
65373;SDS011;52070;53.760;9.678;2023-11-19T00:22:40;8.13;;;3.75;;
65373;SDS011;52070;53.760;9.678;2023-11-19T00:25:08;8.13;;;4.10;;
65373;SDS011;52070;53.760;9.678;2023-11-19T00:27:36;6.63;;;3.92;;
65373;SDS011;52070;53.760;9.678;2023-11-19T00:30:04;5.85;;;3.80;;
65373;SDS011;52070;53.760;9.678;2023-11-19T00:32:32;6.85;;;4.28;;
65373;SDS011;52070;53.760;9.678;2023-11-19T00:34:59;6.47;;;4.07;;
65373;SDS011;52070;53.760;9.678;2023-11-19T00:37:26;6.38;;;4.57;;
65373;SDS011;52070;53.760;9.678;2023-11-19T00:39:53;7.22;;;4.10;;
65373;SDS011;52070;53.760;9.678;2023-11-19T00:42:21;7.03;;;4.07;;
65373;SDS011;52070;53.760;9.678;2023-11-19T00:44:51;6.55;;;3.72;;
65373;SDS011;52070;53.760;9.678;2023-11-19T00:47:18;5.85;;;3.60;;
65373;SDS011;52070;53.760;9.678;2023-11-19T00:49:46;11.10;;;4.35;;
65373;SDS011;52070;53.760;9.678;2023-11-19T00:52:14;8.40;;;4.30;;
65373;SDS011;52070;53.760;9.678;2023-11-19T00:54:41;8.93;;;4.18;;
65373;SDS011;52070;53.760;9.678;2023-11-19T00:57:08;7.72;;;3.60;;
65373;SDS011;52070;53.760;9.678;2023-11-19T00:59:35;6.55;;;3.22;;
65373;SDS011;52070;53.760;9.678;2023-11-19T01:02:04;6.07;;;3.33;;
65373;SDS011;52070;53.760;9.678;2023-11-19T01:04:33;5.07;;;3.20;;
65373;SDS011;52070;53.760;9.678;2023-11-19T01:07:01;9.30;;;3.22;;
65373;SDS011;52070;53.760;9.678;2023-11-19T01:09:29;8.45;;;3.63;;
65373;SDS011;52070;53.760;9.678;2023-11-19T01:11:57;5.47;;;3.55;;
65373;SDS011;52070;53.760;9.678;2023-11-19T01:14:25;6.60;;;2.78;;
65373;SDS011;52070;53.760;9.678;2023-11-19T01:16:52;4.20;;;2.85;;
65373;SDS011;52070;53.760;9.678;2023-11-19T01:19:22;4.15;;;2.85;;
65373;SDS011;52070;53.760;9.678;2023-11-19T01:21:49;6.45;;;3.33;;
65373;SDS011;52070;53.760;9.678;2023-11-19T01:24:17;7.35;;;2.60;;
65373;SDS011;52070;53.760;9.678;2023-11-19T01:26:44;4.68;;;2.90;;
65373;SDS011;52070;53.760;9.678;2023-11-19T01:29:11;4.40;;;2.78;;
65373;SDS011;52070;53.760;9.678;2023-11-19T01:31:39;4.40;;;2.50;;
65373;SDS011;52070;53.760;9.678;2023-11-19T01:34:06;3.50;;;2.50;;
65373;SDS011;52070;53.760;9.678;2023-11-19T01:36:34;3.33;;;2.22;;
65373;SDS011;52070;53.760;9.678;2023-11-19T01:39:01;3.08;;;2.50;;
65373;SDS011;52070;53.760;9.678;2023-11-19T01:41:29;3.42;;;2.50;;
65373;SDS011;52070;53.760;9.678;2023-11-19T01:44:01;5.18;;;2.35;;
65373;SDS011;52070;53.760;9.678;2023-11-19T01:46:28;3.42;;;2.42;;
65373;SDS011;52070;53.760;9.678;2023-11-19T01:48:56;3.65;;;2.08;;
65373;SDS011;52070;53.760;9.678;2023-11-19T01:51:23;5.47;;;2.20;;
65373;SDS011;52070;53.760;9.678;2023-11-19T01:53:51;3.10;;;2.38;;
65373;SDS011;52070;53.760;9.678;2023-11-19T01:56:19;3.33;;;2.40;;
65373;SDS011;52070;53.760;9.678;2023-11-19T01:58:47;2.55;;;2.05;;
65373;SDS011;52070;53.760;9.678;2023-11-19T02:01:16;3.42;;;2.70;;
65373;SDS011;52070;53.760;9.678;2023-11-19T02:03:43;2.58;;;2.20;;
65373;SDS011;52070;53.760;9.678;2023-11-19T02:06:10;2.42;;;2.05;;
65373;SDS011;52070;53.760;9.678;2023-11-19T02:08:37;4.65;;;2.40;;
65373;SDS011;52070;53.760;9.678;2023-11-19T02:11:06;2.55;;;1.95;;
65373;SDS011;52070;53.760;9.678;2023-11-19T02:13:34;2.92;;;2.05;;
65373;SDS011;52070;53.760;9.678;2023-11-19T02:16:03;2.72;;;1.83;;
65373;SDS011;52070;53.760;9.678;2023-11-19T02:18:32;3.10;;;1.55;;
65373;SDS011;52070;53.760;9.678;2023-11-19T02:20:59;2.33;;;1.80;;
65373;SDS011;52070;53.760;9.678;2023-11-19T02:23:26;3.92;;;1.90;;
65373;SDS011;52070;53.760;9.678;2023-11-19T02:25:58;2.05;;;1.85;;
65373;SDS011;52070;53.760;9.678;2023-11-19T02:28:30;2.45;;;1.73;;
65373;SDS011;52070;53.760;9.678;2023-11-19T02:30:58;3.08;;;2.03;;
65373;SDS011;52070;53.760;9.678;2023-11-19T02:33:25;2.35;;;1.88;;
65373;SDS011;52070;53.760;9.678;2023-11-19T02:35:52;3.03;;;1.65;;
65373;SDS011;52070;53.760;9.678;2023-11-19T02:38:19;2.10;;;1.50;;
65373;SDS011;52070;53.760;9.678;2023-11-19T02:40:47;2.83;;;1.75;;
65373;SDS011;52070;53.760;9.678;2023-11-19T02:43:14;1.83;;;1.50;;
65373;SDS011;52070;53.760;9.678;2023-11-19T02:45:43;5.32;;;1.90;;
65373;SDS011;52070;53.760;9.678;2023-11-19T02:48:11;1.65;;;1.42;;
65373;SDS011;52070;53.760;9.678;2023-11-19T02:50:39;2.00;;;1.45;;
65373;SDS011;52070;53.760;9.678;2023-11-19T02:53:06;1.77;;;1.30;;
65373;SDS011;52070;53.760;9.678;2023-11-19T02:55:34;1.98;;;1.50;;
65373;SDS011;52070;53.760;9.678;2023-11-19T02:58:03;1.55;;;1.40;;
65373;SDS011;52070;53.760;9.678;2023-11-19T03:00:46;1.77;;;1.40;;
65373;SDS011;52070;53.760;9.678;2023-11-19T03:03:19;2.50;;;1.35;;
65373;SDS011;52070;53.760;9.678;2023-11-19T03:05:48;1.73;;;1.35;;
65373;SDS011;52070;53.760;9.678;2023-11-19T03:08:15;1.60;;;1.50;;
65373;SDS011;52070;53.760;9.678;2023-11-19T03:10:42;4.20;;;1.40;;
65373;SDS011;52070;53.760;9.678;2023-11-19T03:13:11;1.77;;;1.35;;
65373;SDS011;52070;53.760;9.678;2023-11-19T03:15:39;1.63;;;1.45;;
65373;SDS011;52070;53.760;9.678;2023-11-19T03:18:08;2.47;;;1.65;;
65373;SDS011;52070;53.760;9.678;2023-11-19T03:20:35;1.80;;;1.70;;
65373;SDS011;52070;53.760;9.678;2023-11-19T03:23:02;5.70;;;2.20;;
65373;SDS011;52070;53.760;9.678;2023-11-19T03:25:29;2.50;;;2.15;;
65373;SDS011;52070;53.760;9.678;2023-11-19T03:27:59;2.65;;;2.10;;
65373;SDS011;52070;53.760;9.678;2023-11-19T03:30:28;2.67;;;2.20;;
65373;SDS011;52070;53.760;9.678;2023-11-19T03:32:55;3.63;;;2.42;;
65373;SDS011;52070;53.760;9.678;2023-11-19T03:35:24;3.05;;;2.58;;
65373;SDS011;52070;53.760;9.678;2023-11-19T03:37:51;2.75;;;2.42;;
65373;SDS011;52070;53.760;9.678;2023-11-19T03:40:18;4.60;;;3.17;;
65373;SDS011;52070;53.760;9.678;2023-11-19T03:42:45;3.55;;;3.08;;
65373;SDS011;52070;53.760;9.678;2023-11-19T03:45:12;6.15;;;3.58;;
65373;SDS011;52070;53.760;9.678;2023-11-19T03:47:40;5.78;;;4.18;;
65373;SDS011;52070;53.760;9.678;2023-11-19T03:50:07;6.22;;;4.57;;
65373;SDS011;52070;53.760;9.678;2023-11-19T03:52:36;6.28;;;4.63;;
65373;SDS011;52070;53.760;9.678;2023-11-19T03:55:03;7.78;;;5.00;;
65373;SDS011;52070;53.760;9.678;2023-11-19T03:57:31;8.50;;;5.55;;
65373;SDS011;52070;53.760;9.678;2023-11-19T03:59:58;7.90;;;5.38;;
65373;SDS011;52070;53.760;9.678;2023-11-19T04:02:25;9.93;;;7.47;;
65373;SDS011;52070;53.760;9.678;2023-11-19T04:04:54;16.52;;;8.13;;
65373;SDS011;52070;53.760;9.678;2023-11-19T04:07:21;10.68;;;7.80;;
65373;SDS011;52070;53.760;9.678;2023-11-19T04:09:49;12.90;;;8.45;;
65373;SDS011;52070;53.760;9.678;2023-11-19T04:12:16;15.93;;;10.05;;
65373;SDS011;52070;53.760;9.678;2023-11-19T04:14:43;20.95;;;10.38;;
65373;SDS011;52070;53.760;9.678;2023-11-19T04:17:10;23.67;;;11.35;;
65373;SDS011;52070;53.760;9.678;2023-11-19T04:19:37;18.77;;;10.75;;
65373;SDS011;52070;53.760;9.678;2023-11-19T04:22:06;22.10;;;12.13;;
65373;SDS011;52070;53.760;9.678;2023-11-19T04:24:34;25.45;;;12.15;;
65373;SDS011;52070;53.760;9.678;2023-11-19T04:27:03;25.73;;;12.35;;
65373;SDS011;52070;53.760;9.678;2023-11-19T04:29:31;25.33;;;12.00;;
65373;SDS011;52070;53.760;9.678;2023-11-19T04:31:59;27.90;;;13.60;;
65373;SDS011;52070;53.760;9.678;2023-11-19T04:34:26;32.83;;;14.02;;
65373;SDS011;52070;53.760;9.678;2023-11-19T04:36:53;33.90;;;13.90;;
65373;SDS011;52070;53.760;9.678;2023-11-19T04:39:20;29.80;;;14.20;;
65373;SDS011;52070;53.760;9.678;2023-11-19T04:41:48;34.58;;;14.20;;
65373;SDS011;52070;53.760;9.678;2023-11-19T04:44:16;29.98;;;14.55;;
65373;SDS011;52070;53.760;9.678;2023-11-19T04:46:43;33.83;;;14.52;;
65373;SDS011;52070;53.760;9.678;2023-11-19T04:49:11;41.35;;;14.98;;
65373;SDS011;52070;53.760;9.678;2023-11-19T04:51:39;36.10;;;16.10;;
65373;SDS011;52070;53.760;9.678;2023-11-19T04:54:07;42.92;;;16.15;;
65373;SDS011;52070;53.760;9.678;2023-11-19T04:56:35;47.42;;;18.27;;
65373;SDS011;52070;53.760;9.678;2023-11-19T04:59:02;53.75;;;17.45;;
65373;SDS011;52070;53.760;9.678;2023-11-19T05:01:32;48.92;;;18.17;;
65373;SDS011;52070;53.760;9.678;2023-11-19T05:03:59;48.13;;;18.58;;
65373;SDS011;52070;53.760;9.678;2023-11-19T05:06:27;57.72;;;18.98;;
65373;SDS011;52070;53.760;9.678;2023-11-19T05:08:55;59.78;;;20.20;;
65373;SDS011;52070;53.760;9.678;2023-11-19T05:11:22;64.05;;;21.15;;
65373;SDS011;52070;53.760;9.678;2023-11-19T05:13:49;61.25;;;21.20;;
65373;SDS011;52070;53.760;9.678;2023-11-19T05:16:16;63.05;;;20.88;;
65373;SDS011;52070;53.760;9.678;2023-11-19T05:18:45;67.93;;;20.38;;
65373;SDS011;52070;53.760;9.678;2023-11-19T05:21:13;68.05;;;21.08;;
65373;SDS011;52070;53.760;9.678;2023-11-19T05:23:40;65.82;;;20.55;;
65373;SDS011;52070;53.760;9.678;2023-11-19T05:26:07;69.97;;;20.88;;
65373;SDS011;52070;53.760;9.678;2023-11-19T05:28:33;73.82;;;19.92;;
65373;SDS011;52070;53.760;9.678;2023-11-19T05:31:01;64.72;;;21.30;;
65373;SDS011;52070;53.760;9.678;2023-11-19T05:33:28;72.18;;;20.38;;
65373;SDS011;52070;53.760;9.678;2023-11-19T05:35:56;71.53;;;20.65;;
65373;SDS011;52070;53.760;9.678;2023-11-19T05:38:23;68.65;;;20.92;;
65373;SDS011;52070;53.760;9.678;2023-11-19T05:40:50;78.25;;;20.88;;
65373;SDS011;52070;53.760;9.678;2023-11-19T05:43:17;70.85;;;19.88;;
65373;SDS011;52070;53.760;9.678;2023-11-19T05:45:44;64.68;;;21.75;;
65373;SDS011;52070;53.760;9.678;2023-11-19T05:48:11;68.30;;;20.40;;
65373;SDS011;52070;53.760;9.678;2023-11-19T05:50:38;68.10;;;19.85;;
65373;SDS011;52070;53.760;9.678;2023-11-19T05:53:06;67.43;;;18.88;;
65373;SDS011;52070;53.760;9.678;2023-11-19T05:55:35;63.28;;;17.75;;
65373;SDS011;52070;53.760;9.678;2023-11-19T05:58:10;63.83;;;16.88;;
65373;SDS011;52070;53.760;9.678;2023-11-19T06:00:38;64.70;;;18.17;;
65373;SDS011;52070;53.760;9.678;2023-11-19T06:03:05;60.38;;;17.40;;
65373;SDS011;52070;53.760;9.678;2023-11-19T06:05:32;60.50;;;17.50;;
65373;SDS011;52070;53.760;9.678;2023-11-19T06:07:59;54.35;;;15.93;;
65373;SDS011;52070;53.760;9.678;2023-11-19T06:10:28;50.83;;;15.13;;
65373;SDS011;52070;53.760;9.678;2023-11-19T06:12:57;57.00;;;15.43;;
65373;SDS011;52070;53.760;9.678;2023-11-19T06:15:25;53.83;;;15.10;;
65373;SDS011;52070;53.760;9.678;2023-11-19T06:17:52;60.63;;;13.23;;
65373;SDS011;52070;53.760;9.678;2023-11-19T06:20:20;65.05;;;13.02;;
65373;SDS011;52070;53.760;9.678;2023-11-19T06:22:47;56.10;;;12.57;;
65373;SDS011;52070;53.760;9.678;2023-11-19T06:25:14;53.50;;;11.57;;
65373;SDS011;52070;53.760;9.678;2023-11-19T06:27:42;53.08;;;11.25;;
65373;SDS011;52070;53.760;9.678;2023-11-19T06:30:10;44.60;;;8.82;;
65373;SDS011;52070;53.760;9.678;2023-11-19T06:32:38;45.67;;;7.40;;
65373;SDS011;52070;53.760;9.678;2023-11-19T06:35:05;38.13;;;8.18;;
65373;SDS011;52070;53.760;9.678;2023-11-19T06:37:32;46.42;;;7.72;;
65373;SDS011;52070;53.760;9.678;2023-11-19T06:39:59;43.10;;;7.00;;
65373;SDS011;52070;53.760;9.678;2023-11-19T06:42:26;40.13;;;5.95;;
65373;SDS011;52070;53.760;9.678;2023-11-19T06:44:55;44.50;;;6.65;;
65373;SDS011;52070;53.760;9.678;2023-11-19T06:47:25;47.53;;;6.32;;
65373;SDS011;52070;53.760;9.678;2023-11-19T06:49:53;37.55;;;5.63;;
65373;SDS011;52070;53.760;9.678;2023-11-19T06:52:20;39.42;;;5.88;;
65373;SDS011;52070;53.760;9.678;2023-11-19T06:54:47;33.17;;;5.25;;
65373;SDS011;52070;53.760;9.678;2023-11-19T06:57:14;45.63;;;4.93;;
65373;SDS011;52070;53.760;9.678;2023-11-19T06:59:42;36.38;;;4.72;;
65373;SDS011;52070;53.760;9.678;2023-11-19T07:02:10;33.40;;;5.13;;
65373;SDS011;52070;53.760;9.678;2023-11-19T07:04:37;34.33;;;5.22;;
65373;SDS011;52070;53.760;9.678;2023-11-19T07:07:04;30.23;;;4.68;;
65373;SDS011;52070;53.760;9.678;2023-11-19T07:09:32;29.42;;;4.80;;
65373;SDS011;52070;53.760;9.678;2023-11-19T07:11:59;32.20;;;4.97;;
65373;SDS011;52070;53.760;9.678;2023-11-19T07:14:27;34.92;;;5.20;;
65373;SDS011;52070;53.760;9.678;2023-11-19T07:16:54;48.92;;;5.38;;
65373;SDS011;52070;53.760;9.678;2023-11-19T07:19:22;26.23;;;3.70;;
65373;SDS011;52070;53.760;9.678;2023-11-19T07:21:49;30.23;;;3.97;;
65373;SDS011;52070;53.760;9.678;2023-11-19T07:24:16;33.80;;;4.35;;
65373;SDS011;52070;53.760;9.678;2023-11-19T07:26:43;38.13;;;4.30;;
65373;SDS011;52070;53.760;9.678;2023-11-19T07:29:12;29.63;;;3.60;;
65373;SDS011;52070;53.760;9.678;2023-11-19T07:31:40;35.10;;;4.13;;
65373;SDS011;52070;53.760;9.678;2023-11-19T07:34:07;36.53;;;4.93;;
65373;SDS011;52070;53.760;9.678;2023-11-19T07:36:36;27.73;;;3.45;;
65373;SDS011;52070;53.760;9.678;2023-11-19T07:39:03;30.90;;;4.00;;
65373;SDS011;52070;53.760;9.678;2023-11-19T07:41:30;23.17;;;3.58;;
65373;SDS011;52070;53.760;9.678;2023-11-19T07:43:57;35.33;;;4.28;;
65373;SDS011;52070;53.760;9.678;2023-11-19T07:46:24;27.08;;;3.88;;
65373;SDS011;52070;53.760;9.678;2023-11-19T07:48:52;35.90;;;3.85;;
65373;SDS011;52070;53.760;9.678;2023-11-19T07:51:19;33.90;;;4.57;;
65373;SDS011;52070;53.760;9.678;2023-11-19T07:53:48;29.30;;;3.83;;
65373;SDS011;52070;53.760;9.678;2023-11-19T07:56:15;24.00;;;3.88;;
65373;SDS011;52070;53.760;9.678;2023-11-19T07:58:42;22.08;;;3.58;;
65373;SDS011;52070;53.760;9.678;2023-11-19T08:01:09;31.17;;;3.75;;
65373;SDS011;52070;53.760;9.678;2023-11-19T08:03:36;31.52;;;4.05;;
65373;SDS011;52070;53.760;9.678;2023-11-19T08:06:03;35.97;;;4.13;;
65373;SDS011;52070;53.760;9.678;2023-11-19T08:08:31;34.42;;;4.25;;
65373;SDS011;52070;53.760;9.678;2023-11-19T08:11:00;31.50;;;4.53;;
65373;SDS011;52070;53.760;9.678;2023-11-19T08:13:27;28.05;;;4.20;;
65373;SDS011;52070;53.760;9.678;2023-11-19T08:15:54;34.83;;;4.13;;
65373;SDS011;52070;53.760;9.678;2023-11-19T08:18:22;26.80;;;3.95;;
65373;SDS011;52070;53.760;9.678;2023-11-19T08:20:49;34.92;;;4.70;;
65373;SDS011;52070;53.760;9.678;2023-11-19T08:23:19;31.42;;;3.85;;
65373;SDS011;52070;53.760;9.678;2023-11-19T08:25:46;28.83;;;4.35;;
65373;SDS011;52070;53.760;9.678;2023-11-19T08:28:14;26.85;;;3.72;;
65373;SDS011;52070;53.760;9.678;2023-11-19T08:30:41;34.47;;;4.45;;
65373;SDS011;52070;53.760;9.678;2023-11-19T08:33:09;34.08;;;4.65;;
65373;SDS011;52070;53.760;9.678;2023-11-19T08:35:37;33.35;;;4.35;;
65373;SDS011;52070;53.760;9.678;2023-11-19T08:38:04;29.08;;;3.92;;
65373;SDS011;52070;53.760;9.678;2023-11-19T08:40:31;31.13;;;3.95;;
65373;SDS011;52070;53.760;9.678;2023-11-19T08:42:58;24.60;;;3.13;;
65373;SDS011;52070;53.760;9.678;2023-11-19T08:45:26;40.47;;;4.53;;
65373;SDS011;52070;53.760;9.678;2023-11-19T08:47:53;26.63;;;4.25;;
65373;SDS011;52070;53.760;9.678;2023-11-19T08:50:20;33.35;;;3.90;;
65373;SDS011;52070;53.760;9.678;2023-11-19T08:52:47;34.42;;;4.32;;
65373;SDS011;52070;53.760;9.678;2023-11-19T08:55:14;40.65;;;4.78;;
65373;SDS011;52070;53.760;9.678;2023-11-19T08:57:42;35.20;;;4.70;;
65373;SDS011;52070;53.760;9.678;2023-11-19T09:00:09;41.65;;;5.55;;
65373;SDS011;52070;53.760;9.678;2023-11-19T09:02:47;34.35;;;3.75;;
65373;SDS011;52070;53.760;9.678;2023-11-19T09:05:15;28.02;;;4.75;;
65373;SDS011;52070;53.760;9.678;2023-11-19T09:07:42;29.63;;;4.82;;
65373;SDS011;52070;53.760;9.678;2023-11-19T09:10:09;43.60;;;5.47;;
65373;SDS011;52070;53.760;9.678;2023-11-19T09:12:37;28.70;;;3.83;;
65373;SDS011;52070;53.760;9.678;2023-11-19T09:15:04;30.33;;;4.00;;
65373;SDS011;52070;53.760;9.678;2023-11-19T09:17:32;36.20;;;4.43;;
65373;SDS011;52070;53.760;9.678;2023-11-19T09:20:00;35.45;;;5.05;;
65373;SDS011;52070;53.760;9.678;2023-11-19T09:22:27;38.15;;;4.45;;
65373;SDS011;52070;53.760;9.678;2023-11-19T09:24:54;40.72;;;4.85;;
65373;SDS011;52070;53.760;9.678;2023-11-19T09:27:21;46.42;;;5.03;;
65373;SDS011;52070;53.760;9.678;2023-11-19T09:29:48;36.15;;;4.80;;
65373;SDS011;52070;53.760;9.678;2023-11-19T09:32:22;36.28;;;4.78;;
65373;SDS011;52070;53.760;9.678;2023-11-19T09:34:49;37.05;;;4.55;;
65373;SDS011;52070;53.760;9.678;2023-11-19T09:37:17;38.75;;;5.18;;
65373;SDS011;52070;53.760;9.678;2023-11-19T09:39:44;31.00;;;4.13;;
65373;SDS011;52070;53.760;9.678;2023-11-19T09:42:11;29.25;;;3.63;;
65373;SDS011;52070;53.760;9.678;2023-11-19T09:44:39;36.88;;;4.32;;
65373;SDS011;52070;53.760;9.678;2023-11-19T09:47:09;42.53;;;4.88;;
65373;SDS011;52070;53.760;9.678;2023-11-19T09:49:37;36.42;;;4.28;;
65373;SDS011;52070;53.760;9.678;2023-11-19T09:52:05;38.90;;;4.07;;
65373;SDS011;52070;53.760;9.678;2023-11-19T09:54:34;42.45;;;4.25;;
65373;SDS011;52070;53.760;9.678;2023-11-19T09:57:01;43.08;;;4.32;;
65373;SDS011;52070;53.760;9.678;2023-11-19T09:59:29;29.85;;;4.18;;
65373;SDS011;52070;53.760;9.678;2023-11-19T10:01:56;43.13;;;5.55;;
65373;SDS011;52070;53.760;9.678;2023-11-19T10:04:23;33.80;;;3.97;;
65373;SDS011;52070;53.760;9.678;2023-11-19T10:06:51;40.92;;;4.43;;
65373;SDS011;52070;53.760;9.678;2023-11-19T10:09:18;29.55;;;4.05;;
65373;SDS011;52070;53.760;9.678;2023-11-19T10:11:47;31.02;;;4.80;;
65373;SDS011;52070;53.760;9.678;2023-11-19T10:14:15;35.67;;;5.03;;
65373;SDS011;52070;53.760;9.678;2023-11-19T10:16:44;30.30;;;4.80;;
65373;SDS011;52070;53.760;9.678;2023-11-19T10:19:12;33.17;;;3.95;;
65373;SDS011;52070;53.760;9.678;2023-11-19T10:21:46;35.85;;;3.92;;
65373;SDS011;52070;53.760;9.678;2023-11-19T10:24:13;31.52;;;4.20;;
65373;SDS011;52070;53.760;9.678;2023-11-19T10:26:40;23.55;;;3.85;;
65373;SDS011;52070;53.760;9.678;2023-11-19T10:29:09;34.15;;;3.85;;
65373;SDS011;52070;53.760;9.678;2023-11-19T10:31:39;33.03;;;4.05;;
65373;SDS011;52070;53.760;9.678;2023-11-19T10:34:11;32.92;;;4.40;;
65373;SDS011;52070;53.760;9.678;2023-11-19T10:36:51;41.55;;;5.30;;
65373;SDS011;52070;53.760;9.678;2023-11-19T10:39:18;33.60;;;4.05;;
65373;SDS011;52070;53.760;9.678;2023-11-19T10:41:46;22.85;;;3.58;;
65373;SDS011;52070;53.760;9.678;2023-11-19T10:44:27;28.85;;;3.53;;
65373;SDS011;52070;53.760;9.678;2023-11-19T10:46:59;38.92;;;4.57;;
65373;SDS011;52070;53.760;9.678;2023-11-19T10:49:26;44.55;;;5.15;;
65373;SDS011;52070;53.760;9.678;2023-11-19T10:51:53;38.53;;;4.72;;
65373;SDS011;52070;53.760;9.678;2023-11-19T10:54:23;31.80;;;4.73;;
65373;SDS011;52070;53.760;9.678;2023-11-19T10:56:55;31.30;;;3.65;;
65373;SDS011;52070;53.760;9.678;2023-11-19T10:59:28;30.85;;;3.83;;
65373;SDS011;52070;53.760;9.678;2023-11-19T11:01:57;32.70;;;4.07;;
65373;SDS011;52070;53.760;9.678;2023-11-19T11:04:27;32.73;;;4.43;;
65373;SDS011;52070;53.760;9.678;2023-11-19T11:06:57;30.52;;;3.75;;
65373;SDS011;52070;53.760;9.678;2023-11-19T11:09:26;42.83;;;4.32;;
65373;SDS011;52070;53.760;9.678;2023-11-19T11:11:53;39.92;;;4.25;;
65373;SDS011;52070;53.760;9.678;2023-11-19T11:14:22;44.33;;;4.80;;
65373;SDS011;52070;53.760;9.678;2023-11-19T11:16:53;37.85;;;4.18;;
65373;SDS011;52070;53.760;9.678;2023-11-19T11:19:20;39.88;;;4.28;;
65373;SDS011;52070;53.760;9.678;2023-11-19T11:21:49;26.08;;;3.85;;
65373;SDS011;52070;53.760;9.678;2023-11-19T11:24:23;43.10;;;5.40;;
65373;SDS011;52070;53.760;9.678;2023-11-19T11:27:16;46.83;;;5.20;;
65373;SDS011;52070;53.760;9.678;2023-11-19T11:30:05;35.33;;;4.30;;
65373;SDS011;52070;53.760;9.678;2023-11-19T11:32:43;37.38;;;4.38;;
65373;SDS011;52070;53.760;9.678;2023-11-19T11:35:24;28.20;;;4.55;;
65373;SDS011;52070;53.760;9.678;2023-11-19T11:38:00;39.17;;;4.25;;
65373;SDS011;52070;53.760;9.678;2023-11-19T11:40:30;26.17;;;4.93;;
65373;SDS011;52070;53.760;9.678;2023-11-19T11:42:57;31.30;;;4.57;;
65373;SDS011;52070;53.760;9.678;2023-11-19T11:45:36;33.75;;;4.15;;
65373;SDS011;52070;53.760;9.678;2023-11-19T11:48:12;32.70;;;3.80;;
65373;SDS011;52070;53.760;9.678;2023-11-19T11:50:52;31.92;;;2.95;;
65373;SDS011;52070;53.760;9.678;2023-11-19T11:53:21;28.20;;;3.75;;
65373;SDS011;52070;53.760;9.678;2023-11-19T11:55:58;24.10;;;3.88;;
65373;SDS011;52070;53.760;9.678;2023-11-19T11:58:32;23.95;;;3.25;;
65373;SDS011;52070;53.760;9.678;2023-11-19T12:01:03;25.60;;;3.40;;
65373;SDS011;52070;53.760;9.678;2023-11-19T12:03:33;31.38;;;3.72;;
65373;SDS011;52070;53.760;9.678;2023-11-19T12:06:00;29.15;;;4.05;;
65373;SDS011;52070;53.760;9.678;2023-11-19T12:08:29;30.67;;;3.88;;
65373;SDS011;52070;53.760;9.678;2023-11-19T12:10:57;36.28;;;3.63;;
65373;SDS011;52070;53.760;9.678;2023-11-19T12:13:29;30.63;;;4.25;;
65373;SDS011;52070;53.760;9.678;2023-11-19T12:16:12;42.33;;;4.28;;
65373;SDS011;52070;53.760;9.678;2023-11-19T12:18:41;39.00;;;4.05;;
65373;SDS011;52070;53.760;9.678;2023-11-19T12:21:08;34.50;;;4.35;;
65373;SDS011;52070;53.760;9.678;2023-11-19T12:23:47;24.10;;;4.50;;
65373;SDS011;52070;53.760;9.678;2023-11-19T12:29:05;49.33;;;4.63;;
65373;SDS011;52070;53.760;9.678;2023-11-19T12:31:33;39.67;;;5.20;;
65373;SDS011;52070;53.760;9.678;2023-11-19T12:34:06;34.10;;;4.30;;
65373;SDS011;52070;53.760;9.678;2023-11-19T12:36:37;34.63;;;4.15;;
65373;SDS011;52070;53.760;9.678;2023-11-19T12:39:05;32.90;;;4.22;;
65373;SDS011;52070;53.760;9.678;2023-11-19T12:41:33;25.40;;;3.45;;
65373;SDS011;52070;53.760;9.678;2023-11-19T12:44:15;28.52;;;3.90;;
65373;SDS011;52070;53.760;9.678;2023-11-19T12:46:42;28.88;;;4.25;;
65373;SDS011;52070;53.760;9.678;2023-11-19T12:49:12;35.20;;;3.85;;
65373;SDS011;52070;53.760;9.678;2023-11-19T12:51:39;32.73;;;4.33;;
65373;SDS011;52070;53.760;9.678;2023-11-19T12:54:06;30.67;;;4.05;;
65373;SDS011;52070;53.760;9.678;2023-11-19T12:56:33;33.40;;;3.97;;
65373;SDS011;52070;53.760;9.678;2023-11-19T12:59:10;33.33;;;4.30;;
65373;SDS011;52070;53.760;9.678;2023-11-19T13:01:38;29.67;;;4.30;;
65373;SDS011;52070;53.760;9.678;2023-11-19T13:04:17;37.47;;;4.60;;
65373;SDS011;52070;53.760;9.678;2023-11-19T13:06:44;30.02;;;4.10;;
65373;SDS011;52070;53.760;9.678;2023-11-19T13:09:21;30.13;;;3.72;;
65373;SDS011;52070;53.760;9.678;2023-11-19T13:11:48;41.92;;;4.93;;
65373;SDS011;52070;53.760;9.678;2023-11-19T13:14:15;23.27;;;3.58;;
65373;SDS011;52070;53.760;9.678;2023-11-19T13:16:42;30.75;;;4.25;;
65373;SDS011;52070;53.760;9.678;2023-11-19T13:19:11;28.83;;;4.55;;
65373;SDS011;52070;53.760;9.678;2023-11-19T13:21:39;34.20;;;3.75;;
65373;SDS011;52070;53.760;9.678;2023-11-19T13:24:07;30.17;;;3.95;;
65373;SDS011;52070;53.760;9.678;2023-11-19T13:26:35;27.77;;;4.50;;
65373;SDS011;52070;53.760;9.678;2023-11-19T13:29:02;32.40;;;3.92;;
65373;SDS011;52070;53.760;9.678;2023-11-19T13:31:29;33.08;;;4.53;;
65373;SDS011;52070;53.760;9.678;2023-11-19T13:33:56;28.83;;;3.58;;
65373;SDS011;52070;53.760;9.678;2023-11-19T13:36:24;35.65;;;5.25;;
65373;SDS011;52070;53.760;9.678;2023-11-19T13:38:53;32.20;;;3.90;;
65373;SDS011;52070;53.760;9.678;2023-11-19T13:41:24;39.92;;;4.07;;
65373;SDS011;52070;53.760;9.678;2023-11-19T13:43:51;41.67;;;4.50;;
65373;SDS011;52070;53.760;9.678;2023-11-19T13:46:19;40.35;;;4.28;;
65373;SDS011;52070;53.760;9.678;2023-11-19T13:48:45;26.70;;;4.30;;
65373;SDS011;52070;53.760;9.678;2023-11-19T13:51:15;38.13;;;4.20;;
65373;SDS011;52070;53.760;9.678;2023-11-19T13:53:42;34.80;;;4.63;;
65373;SDS011;52070;53.760;9.678;2023-11-19T13:56:11;41.03;;;5.50;;
65373;SDS011;52070;53.760;9.678;2023-11-19T13:58:37;35.03;;;4.00;;
65373;SDS011;52070;53.760;9.678;2023-11-19T14:01:05;41.88;;;5.38;;
65373;SDS011;52070;53.760;9.678;2023-11-19T14:03:32;37.58;;;4.45;;
65373;SDS011;52070;53.760;9.678;2023-11-19T14:05:59;27.92;;;3.70;;
65373;SDS011;52070;53.760;9.678;2023-11-19T14:08:27;37.33;;;4.78;;
65373;SDS011;52070;53.760;9.678;2023-11-19T14:10:54;38.42;;;4.47;;
65373;SDS011;52070;53.760;9.678;2023-11-19T14:13:23;24.23;;;3.80;;
65373;SDS011;52070;53.760;9.678;2023-11-19T14:15:50;27.95;;;3.58;;
65373;SDS011;52070;53.760;9.678;2023-11-19T14:18:17;28.13;;;3.45;;
65373;SDS011;52070;53.760;9.678;2023-11-19T14:20:44;20.05;;;3.35;;
65373;SDS011;52070;53.760;9.678;2023-11-19T14:23:11;19.33;;;2.70;;
65373;SDS011;52070;53.760;9.678;2023-11-19T14:25:38;27.63;;;3.45;;
65373;SDS011;52070;53.760;9.678;2023-11-19T14:28:05;22.23;;;3.17;;
65373;SDS011;52070;53.760;9.678;2023-11-19T14:30:34;17.63;;;2.85;;
65373;SDS011;52070;53.760;9.678;2023-11-19T14:33:01;21.50;;;3.00;;
65373;SDS011;52070;53.760;9.678;2023-11-19T14:35:28;14.25;;;2.20;;
65373;SDS011;52070;53.760;9.678;2023-11-19T14:37:58;14.75;;;2.58;;
65373;SDS011;52070;53.760;9.678;2023-11-19T14:40:25;21.88;;;2.63;;
65373;SDS011;52070;53.760;9.678;2023-11-19T14:42:52;12.93;;;2.65;;
65373;SDS011;52070;53.760;9.678;2023-11-19T14:45:19;16.60;;;2.20;;